sensor_id;sensor_type;location;lat;lon;timestamp;P1;durP1;ratioP1;P2;durP2;ratioP2
26038;SDS011;13815;52.374;4.882;2023-04-03T00:00:37;41.35;;;27.30;;
26038;SDS011;13815;52.374;4.882;2023-04-03T00:03:03;38.58;;;26.33;;
26038;SDS011;13815;52.374;4.882;2023-04-03T00:05:28;37.92;;;26.40;;
26038;SDS011;13815;52.374;4.882;2023-04-03T00:07:54;40.53;;;26.27;;
26038;SDS011;13815;52.374;4.882;2023-04-03T00:10:19;36.95;;;25.35;;
26038;SDS011;13815;52.374;4.882;2023-04-03T00:12:45;37.75;;;26.23;;
26038;SDS011;13815;52.374;4.882;2023-04-03T00:15:10;38.65;;;26.60;;
26038;SDS011;13815;52.374;4.882;2023-04-03T00:17:35;40.30;;;26.58;;
26038;SDS011;13815;52.374;4.882;2023-04-03T00:20:01;38.53;;;26.75;;
26038;SDS011;13815;52.374;4.882;2023-04-03T00:22:27;38.33;;;26.38;;
26038;SDS011;13815;52.374;4.882;2023-04-03T00:24:53;40.75;;;26.67;;
26038;SDS011;13815;52.374;4.882;2023-04-03T00:27:19;38.70;;;25.95;;
26038;SDS011;13815;52.374;4.882;2023-04-03T00:29:44;38.58;;;25.80;;
26038;SDS011;13815;52.374;4.882;2023-04-03T00:32:10;38.03;;;25.80;;
26038;SDS011;13815;52.374;4.882;2023-04-03T00:34:35;38.92;;;26.35;;
26038;SDS011;13815;52.374;4.882;2023-04-03T00:37:00;38.88;;;26.20;;
26038;SDS011;13815;52.374;4.882;2023-04-03T00:39:26;38.85;;;26.30;;
26038;SDS011;13815;52.374;4.882;2023-04-03T00:41:51;42.15;;;27.23;;
26038;SDS011;13815;52.374;4.882;2023-04-03T00:44:18;38.67;;;26.65;;
26038;SDS011;13815;52.374;4.882;2023-04-03T00:46:45;38.72;;;26.38;;
26038;SDS011;13815;52.374;4.882;2023-04-03T00:49:10;41.70;;;26.65;;
26038;SDS011;13815;52.374;4.882;2023-04-03T00:51:35;41.03;;;26.77;;
26038;SDS011;13815;52.374;4.882;2023-04-03T00:54:02;39.55;;;27.25;;
26038;SDS011;13815;52.374;4.882;2023-04-03T00:56:30;39.72;;;27.02;;
26038;SDS011;13815;52.374;4.882;2023-04-03T01:01:24;40.22;;;27.13;;
26038;SDS011;13815;52.374;4.882;2023-04-03T01:03:51;36.75;;;25.95;;
26038;SDS011;13815;52.374;4.882;2023-04-03T01:06:17;36.80;;;25.92;;
26038;SDS011;13815;52.374;4.882;2023-04-03T01:08:46;36.75;;;25.95;;
26038;SDS011;13815;52.374;4.882;2023-04-03T01:11:13;40.45;;;27.00;;
26038;SDS011;13815;52.374;4.882;2023-04-03T01:13:38;37.38;;;26.83;;
26038;SDS011;13815;52.374;4.882;2023-04-03T01:16:05;36.75;;;26.35;;
26038;SDS011;13815;52.374;4.882;2023-04-03T01:18:32;39.45;;;26.63;;
26038;SDS011;13815;52.374;4.882;2023-04-03T01:26:29;36.30;;;26.30;;
26038;SDS011;13815;52.374;4.882;2023-04-03T01:28:55;35.95;;;26.10;;
26038;SDS011;13815;52.374;4.882;2023-04-03T01:33:53;34.95;;;25.55;;
26038;SDS011;13815;52.374;4.882;2023-04-03T01:36:23;34.88;;;25.42;;
26038;SDS011;13815;52.374;4.882;2023-04-03T01:38:51;39.58;;;26.27;;
26038;SDS011;13815;52.374;4.882;2023-04-03T01:41:17;39.22;;;26.98;;
26038;SDS011;13815;52.374;4.882;2023-04-03T01:43:43;39.55;;;26.92;;
26038;SDS011;13815;52.374;4.882;2023-04-03T01:46:08;39.50;;;26.45;;
26038;SDS011;13815;52.374;4.882;2023-04-03T01:48:34;35.35;;;26.13;;
26038;SDS011;13815;52.374;4.882;2023-04-03T01:50:59;34.75;;;25.55;;
26038;SDS011;13815;52.374;4.882;2023-04-03T01:53:25;34.10;;;25.65;;
26038;SDS011;13815;52.374;4.882;2023-04-03T01:55:50;33.05;;;25.13;;
26038;SDS011;13815;52.374;4.882;2023-04-03T01:58:15;32.92;;;24.95;;
26038;SDS011;13815;52.374;4.882;2023-04-03T02:00:41;33.22;;;25.00;;
26038;SDS011;13815;52.374;4.882;2023-04-03T02:03:06;33.15;;;25.30;;
26038;SDS011;13815;52.374;4.882;2023-04-03T02:05:34;32.92;;;24.83;;
26038;SDS011;13815;52.374;4.882;2023-04-03T02:07:59;34.20;;;24.85;;
26038;SDS011;13815;52.374;4.882;2023-04-03T02:10:25;32.30;;;25.05;;
26038;SDS011;13815;52.374;4.882;2023-04-03T02:12:50;31.35;;;24.33;;
26038;SDS011;13815;52.374;4.882;2023-04-03T02:15:16;33.72;;;24.83;;
26038;SDS011;13815;52.374;4.882;2023-04-03T02:17:42;30.45;;;24.30;;
26038;SDS011;13815;52.374;4.882;2023-04-03T02:20:07;31.17;;;24.85;;
26038;SDS011;13815;52.374;4.882;2023-04-03T02:22:33;34.38;;;24.83;;
26038;SDS011;13815;52.374;4.882;2023-04-03T02:24:58;30.33;;;24.40;;
26038;SDS011;13815;52.374;4.882;2023-04-03T02:27:23;29.15;;;23.85;;
26038;SDS011;13815;52.374;4.882;2023-04-03T02:29:49;32.85;;;24.33;;
26038;SDS011;13815;52.374;4.882;2023-04-03T02:32:14;32.85;;;24.63;;
26038;SDS011;13815;52.374;4.882;2023-04-03T02:34:40;29.80;;;24.48;;
26038;SDS011;13815;52.374;4.882;2023-04-03T02:37:05;31.45;;;24.98;;
26038;SDS011;13815;52.374;4.882;2023-04-03T02:39:31;28.60;;;24.02;;
26038;SDS011;13815;52.374;4.882;2023-04-03T02:41:56;28.25;;;23.65;;
26038;SDS011;13815;52.374;4.882;2023-04-03T02:44:22;28.58;;;24.08;;
26038;SDS011;13815;52.374;4.882;2023-04-03T02:46:48;28.10;;;23.80;;
26038;SDS011;13815;52.374;4.882;2023-04-03T02:49:14;27.80;;;23.70;;
26038;SDS011;13815;52.374;4.882;2023-04-03T02:51:40;29.85;;;23.52;;
26038;SDS011;13815;52.374;4.882;2023-04-03T02:54:06;26.50;;;23.15;;
26038;SDS011;13815;52.374;4.882;2023-04-03T02:56:31;25.88;;;22.75;;
26038;SDS011;13815;52.374;4.882;2023-04-03T02:58:56;26.35;;;23.45;;
26038;SDS011;13815;52.374;4.882;2023-04-03T03:01:22;27.70;;;24.63;;
26038;SDS011;13815;52.374;4.882;2023-04-03T03:03:47;30.35;;;24.92;;
26038;SDS011;13815;52.374;4.882;2023-04-03T03:06:13;30.42;;;24.70;;
26038;SDS011;13815;52.374;4.882;2023-04-03T03:08:40;27.30;;;24.38;;
26038;SDS011;13815;52.374;4.882;2023-04-03T03:11:06;27.33;;;24.52;;
26038;SDS011;13815;52.374;4.882;2023-04-03T03:13:31;27.60;;;24.80;;
26038;SDS011;13815;52.374;4.882;2023-04-03T03:15:57;27.17;;;24.42;;
26038;SDS011;13815;52.374;4.882;2023-04-03T03:18:23;26.27;;;23.67;;
26038;SDS011;13815;52.374;4.882;2023-04-03T03:20:55;25.77;;;23.27;;
26038;SDS011;13815;52.374;4.882;2023-04-03T03:23:22;27.92;;;23.58;;
26038;SDS011;13815;52.374;4.882;2023-04-03T03:25:48;25.50;;;23.10;;
26038;SDS011;13815;52.374;4.882;2023-04-03T03:28:14;27.60;;;24.63;;
26038;SDS011;13815;52.374;4.882;2023-04-03T03:30:39;25.42;;;23.02;;
26038;SDS011;13815;52.374;4.882;2023-04-03T03:33:05;25.67;;;23.27;;
26038;SDS011;13815;52.374;4.882;2023-04-03T03:35:30;25.30;;;23.00;;
26038;SDS011;13815;52.374;4.882;2023-04-03T03:37:55;24.25;;;22.05;;
26038;SDS011;13815;52.374;4.882;2023-04-03T03:40:21;24.70;;;22.42;;
26038;SDS011;13815;52.374;4.882;2023-04-03T03:42:49;24.90;;;22.63;;
26038;SDS011;13815;52.374;4.882;2023-04-03T03:45:14;24.80;;;22.55;;
26038;SDS011;13815;52.374;4.882;2023-04-03T03:47:40;23.55;;;21.45;;
26038;SDS011;13815;52.374;4.882;2023-04-03T03:50:06;23.33;;;21.27;;
26038;SDS011;13815;52.374;4.882;2023-04-03T03:52:31;22.35;;;20.45;;
26038;SDS011;13815;52.374;4.882;2023-04-03T03:54:57;22.20;;;20.30;;
26038;SDS011;13815;52.374;4.882;2023-04-03T03:57:22;21.52;;;19.73;;
26038;SDS011;13815;52.374;4.882;2023-04-03T03:59:47;22.30;;;20.40;;
26038;SDS011;13815;52.374;4.882;2023-04-03T04:02:13;20.50;;;18.90;;
26038;SDS011;13815;52.374;4.882;2023-04-03T04:04:39;21.15;;;19.17;;
26038;SDS011;13815;52.374;4.882;2023-04-03T04:07:04;19.80;;;18.30;;
26038;SDS011;13815;52.374;4.882;2023-04-03T04:09:30;19.75;;;18.25;;
26038;SDS011;13815;52.374;4.882;2023-04-03T04:11:55;18.85;;;17.48;;
26038;SDS011;13815;52.374;4.882;2023-04-03T04:14:20;18.55;;;17.25;;
26038;SDS011;13815;52.374;4.882;2023-04-03T04:16:46;19.60;;;17.85;;
26038;SDS011;13815;52.374;4.882;2023-04-03T04:19:12;18.52;;;17.23;;
26038;SDS011;13815;52.374;4.882;2023-04-03T04:21:38;18.70;;;17.40;;
26038;SDS011;13815;52.374;4.882;2023-04-03T04:24:04;18.25;;;16.95;;
26038;SDS011;13815;52.374;4.882;2023-04-03T04:26:31;17.65;;;16.45;;
26038;SDS011;13815;52.374;4.882;2023-04-03T04:28:56;17.98;;;16.67;;
26038;SDS011;13815;52.374;4.882;2023-04-03T04:31:22;17.52;;;16.33;;
26038;SDS011;13815;52.374;4.882;2023-04-03T04:33:47;18.00;;;16.70;;
26038;SDS011;13815;52.374;4.882;2023-04-03T04:36:12;18.48;;;16.92;;
26038;SDS011;13815;52.374;4.882;2023-04-03T04:38:39;17.63;;;16.42;;
26038;SDS011;13815;52.374;4.882;2023-04-03T04:41:05;16.88;;;15.77;;
26038;SDS011;13815;52.374;4.882;2023-04-03T04:43:31;17.00;;;15.90;;
26038;SDS011;13815;52.374;4.882;2023-04-03T04:46:06;16.48;;;15.48;;
26038;SDS011;13815;52.374;4.882;2023-04-03T04:48:35;15.85;;;14.95;;
26038;SDS011;13815;52.374;4.882;2023-04-03T04:51:01;16.45;;;15.20;;
26038;SDS011;13815;52.374;4.882;2023-04-03T04:53:27;15.75;;;14.85;;
26038;SDS011;13815;52.374;4.882;2023-04-03T04:55:52;15.88;;;14.98;;
26038;SDS011;13815;52.374;4.882;2023-04-03T04:58:18;15.13;;;14.32;;
26038;SDS011;13815;52.374;4.882;2023-04-03T05:00:43;14.63;;;13.93;;
26038;SDS011;13815;52.374;4.882;2023-04-03T05:03:09;15.65;;;14.63;;
26038;SDS011;13815;52.374;4.882;2023-04-03T05:05:35;15.00;;;14.20;;
26038;SDS011;13815;52.374;4.882;2023-04-03T05:08:00;14.40;;;13.70;;
26038;SDS011;13815;52.374;4.882;2023-04-03T05:10:27;15.00;;;14.00;;
26038;SDS011;13815;52.374;4.882;2023-04-03T05:12:52;14.00;;;13.40;;
26038;SDS011;13815;52.374;4.882;2023-04-03T05:15:17;14.68;;;13.70;;
26038;SDS011;13815;52.374;4.882;2023-04-03T05:17:43;14.88;;;13.63;;
26038;SDS011;13815;52.374;4.882;2023-04-03T05:20:08;13.73;;;13.13;;
26038;SDS011;13815;52.374;4.882;2023-04-03T05:22:34;13.63;;;13.02;;
26038;SDS011;13815;52.374;4.882;2023-04-03T05:24:59;14.25;;;13.30;;
26038;SDS011;13815;52.374;4.882;2023-04-03T05:27:25;13.80;;;12.90;;
26038;SDS011;13815;52.374;4.882;2023-04-03T05:29:53;13.50;;;12.75;;
26038;SDS011;13815;52.374;4.882;2023-04-03T05:32:18;12.57;;;12.07;;
26038;SDS011;13815;52.374;4.882;2023-04-03T05:34:44;14.32;;;13.07;;
26038;SDS011;13815;52.374;4.882;2023-04-03T05:37:10;13.60;;;12.63;;
26038;SDS011;13815;52.374;4.882;2023-04-03T05:39:35;12.57;;;12.07;;
26038;SDS011;13815;52.374;4.882;2023-04-03T05:42:03;12.70;;;12.20;;
26038;SDS011;13815;52.374;4.882;2023-04-03T05:44:28;13.70;;;13.10;;
26038;SDS011;13815;52.374;4.882;2023-04-03T05:46:57;13.00;;;12.50;;
26038;SDS011;13815;52.374;4.882;2023-04-03T05:49:23;12.68;;;12.15;;
26038;SDS011;13815;52.374;4.882;2023-04-03T05:51:48;13.23;;;12.43;;
26038;SDS011;13815;52.374;4.882;2023-04-03T05:54:46;14.13;;;13.00;;
26038;SDS011;13815;52.374;4.882;2023-04-03T05:57:05;11.90;;;11.40;;
26038;SDS011;13815;52.374;4.882;2023-04-03T05:59:30;12.45;;;11.95;;
26038;SDS011;13815;52.374;4.882;2023-04-03T06:01:55;12.80;;;12.30;;
26038;SDS011;13815;52.374;4.882;2023-04-03T06:04:21;13.80;;;13.20;;
26038;SDS011;13815;52.374;4.882;2023-04-03T06:06:50;14.77;;;14.07;;
26038;SDS011;13815;52.374;4.882;2023-04-03T06:09:18;15.05;;;14.27;;
26038;SDS011;13815;52.374;4.882;2023-04-03T06:11:45;16.02;;;15.13;;
26038;SDS011;13815;52.374;4.882;2023-04-03T06:14:11;16.90;;;15.68;;
26038;SDS011;13815;52.374;4.882;2023-04-03T06:16:36;16.65;;;15.65;;
26038;SDS011;13815;52.374;4.882;2023-04-03T06:19:02;17.08;;;15.98;;
26038;SDS011;13815;52.374;4.882;2023-04-03T06:21:27;18.10;;;16.63;;
26038;SDS011;13815;52.374;4.882;2023-04-03T06:23:53;17.08;;;15.98;;
26038;SDS011;13815;52.374;4.882;2023-04-03T06:26:18;17.35;;;16.25;;
26038;SDS011;13815;52.374;4.882;2023-04-03T06:28:44;17.45;;;16.25;;
26038;SDS011;13815;52.374;4.882;2023-04-03T06:31:09;17.80;;;16.60;;
26038;SDS011;13815;52.374;4.882;2023-04-03T06:33:34;18.13;;;16.85;;
26038;SDS011;13815;52.374;4.882;2023-04-03T06:36:02;17.85;;;16.65;;
26038;SDS011;13815;52.374;4.882;2023-04-03T06:38:29;19.42;;;17.63;;
26038;SDS011;13815;52.374;4.882;2023-04-03T06:40:54;18.77;;;17.48;;
26038;SDS011;13815;52.374;4.882;2023-04-03T06:43:20;19.88;;;18.20;;
26038;SDS011;13815;52.374;4.882;2023-04-03T06:45:46;19.52;;;17.50;;
26038;SDS011;13815;52.374;4.882;2023-04-03T06:48:12;19.40;;;17.77;;
26038;SDS011;13815;52.374;4.882;2023-04-03T06:50:37;19.67;;;18.17;;
26038;SDS011;13815;52.374;4.882;2023-04-03T06:53:03;20.98;;;18.98;;
26038;SDS011;13815;52.374;4.882;2023-04-03T06:55:28;20.85;;;19.15;;
26038;SDS011;13815;52.374;4.882;2023-04-03T06:57:54;21.98;;;20.17;;
26038;SDS011;13815;52.374;4.882;2023-04-03T07:00:20;21.95;;;20.15;;
26038;SDS011;13815;52.374;4.882;2023-04-03T07:02:46;22.10;;;20.30;;
26038;SDS011;13815;52.374;4.882;2023-04-03T07:05:11;23.15;;;21.25;;
26038;SDS011;13815;52.374;4.882;2023-04-03T07:07:37;24.80;;;22.70;;
26038;SDS011;13815;52.374;4.882;2023-04-03T07:10:02;25.05;;;22.85;;
26038;SDS011;13815;52.374;4.882;2023-04-03T07:12:28;25.05;;;22.50;;
26038;SDS011;13815;52.374;4.882;2023-04-03T07:14:53;24.80;;;22.60;;
26038;SDS011;13815;52.374;4.882;2023-04-03T07:17:19;25.80;;;23.40;;
26038;SDS011;13815;52.374;4.882;2023-04-03T07:19:45;27.77;;;25.17;;
26038;SDS011;13815;52.374;4.882;2023-04-03T07:22:10;28.55;;;25.85;;
26038;SDS011;13815;52.374;4.882;2023-04-03T07:24:36;28.67;;;25.88;;
26038;SDS011;13815;52.374;4.882;2023-04-03T07:27:02;28.55;;;25.75;;
26038;SDS011;13815;52.374;4.882;2023-04-03T07:29:28;30.40;;;27.40;;
26038;SDS011;13815;52.374;4.882;2023-04-03T07:31:55;30.13;;;26.92;;
26038;SDS011;13815;52.374;4.882;2023-04-03T07:34:21;29.23;;;26.25;;
26038;SDS011;13815;52.374;4.882;2023-04-03T07:36:47;29.20;;;26.30;;
26038;SDS011;13815;52.374;4.882;2023-04-03T07:39:13;30.48;;;27.17;;
26038;SDS011;13815;52.374;4.882;2023-04-03T07:41:39;32.95;;;29.55;;
26038;SDS011;13815;52.374;4.882;2023-04-03T07:44:05;31.58;;;28.27;;
26038;SDS011;13815;52.374;4.882;2023-04-03T07:46:30;33.20;;;28.85;;
26038;SDS011;13815;52.374;4.882;2023-04-03T07:48:56;33.92;;;30.20;;
26038;SDS011;13815;52.374;4.882;2023-04-03T07:51:22;33.75;;;29.50;;
26038;SDS011;13815;52.374;4.882;2023-04-03T07:53:48;36.60;;;29.50;;
26038;SDS011;13815;52.374;4.882;2023-04-03T07:56:14;38.42;;;31.48;;
26038;SDS011;13815;52.374;4.882;2023-04-03T07:58:39;43.85;;;33.25;;
26038;SDS011;13815;52.374;4.882;2023-04-03T08:01:05;43.60;;;31.75;;
26038;SDS011;13815;52.374;4.882;2023-04-03T08:03:31;38.65;;;29.40;;
26038;SDS011;13815;52.374;4.882;2023-04-03T08:06:01;41.78;;;30.27;;
26038;SDS011;13815;52.374;4.882;2023-04-03T08:08:28;39.40;;;29.20;;
26038;SDS011;13815;52.374;4.882;2023-04-03T08:10:55;39.78;;;29.27;;
26038;SDS011;13815;52.374;4.882;2023-04-03T08:13:21;43.13;;;29.02;;
26038;SDS011;13815;52.374;4.882;2023-04-03T08:15:47;41.25;;;29.75;;
26038;SDS011;13815;52.374;4.882;2023-04-03T08:18:13;40.65;;;29.20;;
26038;SDS011;13815;52.374;4.882;2023-04-03T08:20:39;43.58;;;29.40;;
26038;SDS011;13815;52.374;4.882;2023-04-03T08:23:05;42.15;;;28.80;;
26038;SDS011;13815;52.374;4.882;2023-04-03T08:25:31;43.28;;;29.00;;
26038;SDS011;13815;52.374;4.882;2023-04-03T08:27:57;42.58;;;29.08;;
26038;SDS011;13815;52.374;4.882;2023-04-03T08:30:22;41.30;;;27.67;;
26038;SDS011;13815;52.374;4.882;2023-04-03T08:32:48;45.70;;;29.50;;
26038;SDS011;13815;52.374;4.882;2023-04-03T08:35:13;46.58;;;30.45;;
26038;SDS011;13815;52.374;4.882;2023-04-03T08:37:39;43.88;;;29.77;;
26038;SDS011;13815;52.374;4.882;2023-04-03T08:40:05;47.85;;;30.02;;
26038;SDS011;13815;52.374;4.882;2023-04-03T08:45:20;48.50;;;31.95;;
26038;SDS011;13815;52.374;4.882;2023-04-03T08:48:08;44.65;;;29.98;;
26038;SDS011;13815;52.374;4.882;2023-04-03T08:50:41;48.72;;;31.30;;
26038;SDS011;13815;52.374;4.882;2023-04-03T08:53:13;48.05;;;31.33;;
26038;SDS011;13815;52.374;4.882;2023-04-03T08:55:45;48.10;;;31.65;;
26038;SDS011;13815;52.374;4.882;2023-04-03T09:03:16;50.05;;;32.47;;
26038;SDS011;13815;52.374;4.882;2023-04-03T09:06:04;52.30;;;32.33;;
26038;SDS011;13815;52.374;4.882;2023-04-03T09:08:50;51.30;;;32.80;;
26038;SDS011;13815;52.374;4.882;2023-04-03T09:19:04;52.33;;;33.53;;
26038;SDS011;13815;52.374;4.882;2023-04-03T09:21:38;56.53;;;31.83;;
26038;SDS011;13815;52.374;4.882;2023-04-03T09:24:07;54.58;;;33.42;;
26038;SDS011;13815;52.374;4.882;2023-04-03T09:29:07;54.78;;;33.97;;
26038;SDS011;13815;52.374;4.882;2023-04-03T09:31:40;54.53;;;33.67;;
26038;SDS011;13815;52.374;4.882;2023-04-03T09:34:10;54.70;;;34.55;;
26038;SDS011;13815;52.374;4.882;2023-04-03T09:36:43;60.60;;;38.50;;
26038;SDS011;13815;52.374;4.882;2023-04-03T09:39:12;55.58;;;34.58;;
26038;SDS011;13815;52.374;4.882;2023-04-03T09:41:41;55.92;;;35.42;;
26038;SDS011;13815;52.374;4.882;2023-04-03T09:44:21;59.08;;;38.58;;
26038;SDS011;13815;52.374;4.882;2023-04-03T09:46:49;58.65;;;37.55;;
26038;SDS011;13815;52.374;4.882;2023-04-03T09:49:14;56.72;;;35.05;;
26038;SDS011;13815;52.374;4.882;2023-04-03T09:51:40;57.45;;;35.38;;
26038;SDS011;13815;52.374;4.882;2023-04-03T09:57:12;56.30;;;36.15;;
26038;SDS011;13815;52.374;4.882;2023-04-03T09:59:44;57.78;;;38.15;;
26038;SDS011;13815;52.374;4.882;2023-04-03T10:02:23;57.25;;;36.90;;
26038;SDS011;13815;52.374;4.882;2023-04-03T10:04:57;58.53;;;37.92;;
26038;SDS011;13815;52.374;4.882;2023-04-03T10:07:31;61.55;;;41.38;;
26038;SDS011;13815;52.374;4.882;2023-04-03T10:10:20;62.80;;;38.58;;
26038;SDS011;13815;52.374;4.882;2023-04-03T10:12:48;59.65;;;38.83;;
26038;SDS011;13815;52.374;4.882;2023-04-03T10:15:14;62.72;;;39.35;;
26038;SDS011;13815;52.374;4.882;2023-04-03T10:31:44;62.95;;;40.58;;
26038;SDS011;13815;52.374;4.882;2023-04-03T10:36:56;61.17;;;40.20;;
26038;SDS011;13815;52.374;4.882;2023-04-03T10:39:30;60.88;;;40.72;;
26038;SDS011;13815;52.374;4.882;2023-04-03T10:44:31;60.97;;;39.63;;
26038;SDS011;13815;52.374;4.882;2023-04-03T10:49:47;61.13;;;38.65;;
26038;SDS011;13815;52.374;4.882;2023-04-03T10:57:58;62.53;;;36.45;;
26038;SDS011;13815;52.374;4.882;2023-04-03T11:00:30;56.88;;;34.92;;
26038;SDS011;13815;52.374;4.882;2023-04-03T11:03:13;64.78;;;38.65;;
26038;SDS011;13815;52.374;4.882;2023-04-03T11:05:45;59.63;;;38.67;;
26038;SDS011;13815;52.374;4.882;2023-04-03T11:08:19;60.38;;;40.90;;
26038;SDS011;13815;52.374;4.882;2023-04-03T11:10:51;63.55;;;39.25;;
26038;SDS011;13815;52.374;4.882;2023-04-03T11:13:34;60.63;;;39.93;;
26038;SDS011;13815;52.374;4.882;2023-04-03T11:16:04;61.95;;;41.53;;
26038;SDS011;13815;52.374;4.882;2023-04-03T11:18:41;79.25;;;43.80;;
26038;SDS011;13815;52.374;4.882;2023-04-03T11:21:54;59.55;;;38.92;;
26038;SDS011;13815;52.374;4.882;2023-04-03T11:24:04;64.15;;;44.15;;
26038;SDS011;13815;52.374;4.882;2023-04-03T11:26:35;60.38;;;39.88;;
26038;SDS011;13815;52.374;4.882;2023-04-03T11:29:07;66.20;;;40.58;;
26038;SDS011;13815;52.374;4.882;2023-04-03T11:34:26;64.25;;;39.08;;
26038;SDS011;13815;52.374;4.882;2023-04-03T11:37:04;63.15;;;41.08;;
26038;SDS011;13815;52.374;4.882;2023-04-03T11:39:36;70.18;;;42.03;;
26038;SDS011;13815;52.374;4.882;2023-04-03T11:44:39;63.85;;;41.75;;
26038;SDS011;13815;52.374;4.882;2023-04-03T11:47:05;69.88;;;42.60;;
26038;SDS011;13815;52.374;4.882;2023-04-03T11:49:51;69.68;;;41.78;;
26038;SDS011;13815;52.374;4.882;2023-04-03T11:57:46;63.53;;;40.05;;
26038;SDS011;13815;52.374;4.882;2023-04-03T12:05:48;57.83;;;37.22;;
26038;SDS011;13815;52.374;4.882;2023-04-03T12:08:15;57.22;;;37.22;;
26038;SDS011;13815;52.374;4.882;2023-04-03T12:13:35;62.53;;;40.00;;
26038;SDS011;13815;52.374;4.882;2023-04-03T12:16:02;58.50;;;38.30;;
26038;SDS011;13815;52.374;4.882;2023-04-03T12:18:31;55.35;;;35.60;;
26038;SDS011;13815;52.374;4.882;2023-04-03T12:21:05;57.30;;;38.03;;
26038;SDS011;13815;52.374;4.882;2023-04-03T12:23:34;60.75;;;38.75;;
26038;SDS011;13815;52.374;4.882;2023-04-03T12:26:20;62.55;;;41.20;;
26038;SDS011;13815;52.374;4.882;2023-04-03T12:28:47;60.03;;;38.65;;
26038;SDS011;13815;52.374;4.882;2023-04-03T12:31:13;64.57;;;38.25;;
26038;SDS011;13815;52.374;4.882;2023-04-03T12:36:39;62.63;;;38.05;;
26038;SDS011;13815;52.374;4.882;2023-04-03T12:42:32;59.33;;;38.97;;
26038;SDS011;13815;52.374;4.882;2023-04-03T12:47:39;61.25;;;38.72;;
26038;SDS011;13815;52.374;4.882;2023-04-03T12:50:17;63.22;;;39.28;;
26038;SDS011;13815;52.374;4.882;2023-04-03T12:52:47;64.53;;;39.70;;
26038;SDS011;13815;52.374;4.882;2023-04-03T12:55:25;63.05;;;38.60;;
26038;SDS011;13815;52.374;4.882;2023-04-03T12:57:51;63.85;;;39.78;;
26038;SDS011;13815;52.374;4.882;2023-04-03T13:02:50;63.05;;;39.13;;
26038;SDS011;13815;52.374;4.882;2023-04-03T13:05:18;62.75;;;39.70;;
26038;SDS011;13815;52.374;4.882;2023-04-03T13:07:44;58.20;;;38.35;;
26038;SDS011;13815;52.374;4.882;2023-04-03T13:10:16;58.20;;;38.25;;
26038;SDS011;13815;52.374;4.882;2023-04-03T13:12:48;61.83;;;37.08;;
26038;SDS011;13815;52.374;4.882;2023-04-03T13:15:40;61.63;;;36.22;;
26038;SDS011;13815;52.374;4.882;2023-04-03T13:18:30;61.00;;;37.92;;
26038;SDS011;13815;52.374;4.882;2023-04-03T13:21:05;64.22;;;37.03;;
26038;SDS011;13815;52.374;4.882;2023-04-03T13:23:39;59.40;;;35.92;;
26038;SDS011;13815;52.374;4.882;2023-04-03T13:26:06;60.13;;;37.40;;
26038;SDS011;13815;52.374;4.882;2023-04-03T13:28:31;57.47;;;36.63;;
26038;SDS011;13815;52.374;4.882;2023-04-03T13:33:35;59.38;;;36.20;;
26038;SDS011;13815;52.374;4.882;2023-04-03T13:36:10;62.58;;;38.45;;
26038;SDS011;13815;52.374;4.882;2023-04-03T13:38:45;65.22;;;40.42;;
26038;SDS011;13815;52.374;4.882;2023-04-03T13:41:25;60.75;;;38.10;;
26038;SDS011;13815;52.374;4.882;2023-04-03T13:43:55;63.17;;;39.03;;
26038;SDS011;13815;52.374;4.882;2023-04-03T13:46:27;68.40;;;39.15;;
26038;SDS011;13815;52.374;4.882;2023-04-03T13:48:54;69.00;;;39.33;;
26038;SDS011;13815;52.374;4.882;2023-04-03T13:51:22;66.05;;;39.42;;
26038;SDS011;13815;52.374;4.882;2023-04-03T13:53:56;68.97;;;39.38;;
26038;SDS011;13815;52.374;4.882;2023-04-03T13:56:33;60.60;;;37.60;;
26038;SDS011;13815;52.374;4.882;2023-04-03T14:01:45;60.28;;;37.15;;
26038;SDS011;13815;52.374;4.882;2023-04-03T14:04:18;62.25;;;37.88;;
26038;SDS011;13815;52.374;4.882;2023-04-03T14:06:49;60.03;;;38.28;;
26038;SDS011;13815;52.374;4.882;2023-04-03T14:09:15;62.47;;;38.80;;
26038;SDS011;13815;52.374;4.882;2023-04-03T14:11:44;61.03;;;38.85;;
26038;SDS011;13815;52.374;4.882;2023-04-03T14:14:24;63.33;;;39.95;;
26038;SDS011;13815;52.374;4.882;2023-04-03T14:16:56;63.90;;;39.90;;
26038;SDS011;13815;52.374;4.882;2023-04-03T14:19:26;63.03;;;39.20;;
26038;SDS011;13815;52.374;4.882;2023-04-03T14:21:54;62.92;;;40.00;;
26038;SDS011;13815;52.374;4.882;2023-04-03T14:24:20;61.65;;;39.50;;
26038;SDS011;13815;52.374;4.882;2023-04-03T14:26:46;67.50;;;39.92;;
26038;SDS011;13815;52.374;4.882;2023-04-03T14:29:13;63.22;;;41.50;;
26038;SDS011;13815;52.374;4.882;2023-04-03T14:31:39;64.55;;;41.38;;
26038;SDS011;13815;52.374;4.882;2023-04-03T14:34:05;72.28;;;45.53;;
26038;SDS011;13815;52.374;4.882;2023-04-03T14:36:31;66.13;;;43.95;;
26038;SDS011;13815;52.374;4.882;2023-04-03T14:38:58;64.03;;;41.65;;
26038;SDS011;13815;52.374;4.882;2023-04-03T14:41:25;64.03;;;43.50;;
26038;SDS011;13815;52.374;4.882;2023-04-03T14:43:51;69.10;;;42.53;;
26038;SDS011;13815;52.374;4.882;2023-04-03T14:46:19;65.07;;;43.67;;
26038;SDS011;13815;52.374;4.882;2023-04-03T14:48:45;66.15;;;43.55;;
26038;SDS011;13815;52.374;4.882;2023-04-03T14:51:13;64.25;;;43.40;;
26038;SDS011;13815;52.374;4.882;2023-04-03T14:53:39;65.55;;;40.80;;
26038;SDS011;13815;52.374;4.882;2023-04-03T14:56:16;71.45;;;43.00;;
26038;SDS011;13815;52.374;4.882;2023-04-03T14:58:46;68.00;;;41.42;;
26038;SDS011;13815;52.374;4.882;2023-04-03T15:01:15;69.57;;;42.72;;
26038;SDS011;13815;52.374;4.882;2023-04-03T15:03:46;65.88;;;44.20;;
26038;SDS011;13815;52.374;4.882;2023-04-03T15:06:13;64.93;;;43.67;;
26038;SDS011;13815;52.374;4.882;2023-04-03T15:08:39;64.28;;;43.05;;
26038;SDS011;13815;52.374;4.882;2023-04-03T15:11:09;68.43;;;48.25;;
26038;SDS011;13815;52.374;4.882;2023-04-03T15:13:37;65.07;;;44.97;;
26038;SDS011;13815;52.374;4.882;2023-04-03T15:16:03;63.20;;;44.67;;
26038;SDS011;13815;52.374;4.882;2023-04-03T15:18:30;65.55;;;46.75;;
26038;SDS011;13815;52.374;4.882;2023-04-03T15:20:59;64.05;;;45.00;;
26038;SDS011;13815;52.374;4.882;2023-04-03T15:23:25;64.85;;;46.58;;
26038;SDS011;13815;52.374;4.882;2023-04-03T15:25:51;68.78;;;46.25;;
26038;SDS011;13815;52.374;4.882;2023-04-03T15:30:49;65.88;;;44.92;;
26038;SDS011;13815;52.374;4.882;2023-04-03T15:33:15;68.95;;;45.35;;
26038;SDS011;13815;52.374;4.882;2023-04-03T15:35:41;69.65;;;48.70;;
26038;SDS011;13815;52.374;4.882;2023-04-03T15:38:06;68.78;;;46.95;;
26038;SDS011;13815;52.374;4.882;2023-04-03T15:40:32;67.43;;;45.20;;
26038;SDS011;13815;52.374;4.882;2023-04-03T15:42:57;67.78;;;45.83;;
26038;SDS011;13815;52.374;4.882;2023-04-03T15:45:22;68.15;;;46.85;;
26038;SDS011;13815;52.374;4.882;2023-04-03T15:47:48;70.97;;;47.70;;
26038;SDS011;13815;52.374;4.882;2023-04-03T15:50:13;69.10;;;46.15;;
26038;SDS011;13815;52.374;4.882;2023-04-03T15:52:39;64.63;;;40.40;;
26038;SDS011;13815;52.374;4.882;2023-04-03T15:55:05;63.88;;;43.28;;
26038;SDS011;13815;52.374;4.882;2023-04-03T15:57:31;66.70;;;45.25;;
26038;SDS011;13815;52.374;4.882;2023-04-03T15:59:56;68.25;;;42.90;;
26038;SDS011;13815;52.374;4.882;2023-04-03T16:02:22;70.75;;;47.55;;